Time;durP1;ratioP1;P1;durP2;ratioP2;P2;SDS_P1;SDS_P2;PMS_P1;PMS_P2;Temp;Humidity;BMP_temperature;BMP_pressure;BME280_temperature;BME280_humidity;BME280_pressure;Samples;Min_cycle;Max_cycle;Signal;HPM_P1;HPM_P2
2024/01/09 00:00:06;;;;;;;5.05;3.20;;;;;;;;;;5092482;28;20032;-59
2024/01/09 00:02:31;;;;;;;4.25;3.28;;;;;;;;;;5092197;28;20042;-58
2024/01/09 00:04:57;;;;;;;6.75;3.17;;;;;;;;;;5091140;28;20050;-59
2024/01/09 00:07:23;;;;;;;5.57;2.95;;;;;;;;;;5090580;28;20055;-61
2024/01/09 00:09:48;;;;;;;4.65;3.05;;;;;;;;;;5091062;28;20035;-60
2024/01/09 00:12:14;;;;;;;5.07;3.55;;;;;;;;;;5090986;28;20047;-60
2024/01/09 00:14:39;;;;;;;4.72;3.20;;;;;;;;;;5092166;28;20079;-58
2024/01/09 00:17:05;;;;;;;3.97;2.20;;;;;;;;;;5092082;28;20039;-61
2024/01/09 00:19:31;;;;;;;8.45;3.00;;;;;;;;;;5091963;28;20404;-59
2024/01/09 00:21:56;;;;;;;6.22;3.20;;;;;;;;;;5092287;28;20055;-60
2024/01/09 00:24:22;;;;;;;3.80;2.67;;;;;;;;;;5073830;28;20044;-59
2024/01/09 00:26:49;;;;;;;3.67;2.88;;;;;;;;;;5092141;28;20036;-57
2024/01/09 00:29:16;;;;;;;4.00;2.58;;;;;;;;;;5056951;28;20101;-59
2024/01/09 00:31:44;;;;;;;3.83;2.65;;;;;;;;;;5091677;28;20485;-60
2024/01/09 00:34:09;;;;;;;6.28;2.75;;;;;;;;;;5073211;28;20082;-60
2024/01/09 00:36:41;;;;;;;4.63;3.20;;;;;;;;;;5090725;28;20062;-61
2024/01/09 00:39:06;;;;;;;3.50;2.50;;;;;;;;;;5092105;28;20039;-59
2024/01/09 00:41:32;;;;;;;4.55;3.10;;;;;;;;;;5091934;28;20035;-60
2024/01/09 00:43:57;;;;;;;4.55;3.20;;;;;;;;;;5090552;28;20111;-60
2024/01/09 00:46:25;;;;;;;5.30;2.90;;;;;;;;;;5090314;28;20498;-60
2024/01/09 00:48:51;;;;;;;3.67;2.50;;;;;;;;;;5091394;28;20512;-59
2024/01/09 00:51:16;;;;;;;5.47;3.33;;;;;;;;;;5090383;28;20112;-60
2024/01/09 00:53:42;;;;;;;5.72;3.30;;;;;;;;;;5091537;28;20059;-59
2024/01/09 00:56:07;;;;;;;8.38;3.28;;;;;;;;;;5091885;28;20044;-59
2024/01/09 00:58:33;;;;;;;4.85;2.70;;;;;;;;;;5091396;28;20043;-59
2024/01/09 01:00:59;;;;;;;4.43;2.65;;;;;;;;;;5091224;28;20036;-61
2024/01/09 01:03:24;;;;;;;4.68;2.58;;;;;;;;;;5091446;28;20040;-59
2024/01/09 01:05:51;;;;;;;5.13;3.17;;;;;;;;;;5090203;28;20040;-61
2024/01/09 01:08:16;;;;;;;3.53;2.50;;;;;;;;;;5090850;28;20032;-59
2024/01/09 01:10:42;;;;;;;5.75;3.15;;;;;;;;;;5091509;28;20477;-59
2024/01/09 01:13:08;;;;;;;4.47;3.10;;;;;;;;;;5082034;28;20458;-59
2024/01/09 01:15:33;;;;;;;3.17;2.58;;;;;;;;;;5075923;28;20048;-61
2024/01/09 01:17:59;;;;;;;2.78;2.30;;;;;;;;;;5090167;28;20048;-60
2024/01/09 01:20:24;;;;;;;7.32;3.33;;;;;;;;;;5091327;28;20091;-60
2024/01/09 01:22:50;;;;;;;4.07;2.67;;;;;;;;;;5090305;28;20040;-60
2024/01/09 01:25:16;;;;;;;4.28;3.00;;;;;;;;;;5090951;28;20523;-60
2024/01/09 01:27:42;;;;;;;5.18;3.08;;;;;;;;;;5090297;28;20524;-59
2024/01/09 01:30:07;;;;;;;5.20;3.45;;;;;;;;;;5090618;28;20081;-60
2024/01/09 01:32:33;;;;;;;3.30;2.67;;;;;;;;;;5091477;28;20528;-60
2024/01/09 01:34:59;;;;;;;2.45;2.15;;;;;;;;;;5091452;28;20142;-60
2024/01/09 01:37:25;;;;;;;6.07;3.30;;;;;;;;;;5091197;28;20069;-59
2024/01/09 01:39:50;;;;;;;5.78;3.35;;;;;;;;;;5091432;28;20405;-60
2024/01/09 01:42:16;;;;;;;7.75;3.55;;;;;;;;;;5090769;28;20137;-60
2024/01/09 01:44:42;;;;;;;4.20;2.70;;;;;;;;;;5094764;28;20071;-59
2024/01/09 01:47:09;;;;;;;7.55;3.45;;;;;;;;;;5094893;28;20024;-60
2024/01/09 01:49:35;;;;;;;4.45;2.72;;;;;;;;;;5095183;28;20032;-59
2024/01/09 01:52:00;;;;;;;3.20;2.35;;;;;;;;;;5094820;28;20076;-59
2024/01/09 01:54:27;;;;;;;4.30;3.10;;;;;;;;;;5093206;28;20127;-58
2024/01/09 01:56:53;;;;;;;4.25;3.17;;;;;;;;;;5093744;28;20422;-60
2024/01/09 01:59:20;;;;;;;4.93;2.40;;;;;;;;;;5094630;28;20508;-60
2024/01/09 02:01:46;;;;;;;5.05;2.97;;;;;;;;;;5094644;28;20464;-60
2024/01/09 02:04:12;;;;;;;4.80;3.38;;;;;;;;;;5094834;28;20040;-59
2024/01/09 02:06:38;;;;;;;4.15;2.78;;;;;;;;;;5094778;28;20035;-59
2024/01/09 02:09:04;;;;;;;4.95;3.10;;;;;;;;;;5094802;28;20036;-59
2024/01/09 02:11:30;;;;;;;3.92;2.72;;;;;;;;;;5094606;28;20434;-60
2024/01/09 02:13:56;;;;;;;5.10;3.15;;;;;;;;;;5079294;28;20548;-60
2024/01/09 02:16:22;;;;;;;6.47;4.07;;;;;;;;;;5074056;28;20040;-61
2024/01/09 02:19:07;;;;;;;4.90;2.83;;;;;;;;;;5073212;28;20105;-60
2024/01/09 02:21:33;;;;;;;6.00;3.72;;;;;;;;;;5073200;28;20478;-58
2024/01/09 02:23:59;;;;;;;4.70;3.20;;;;;;;;;;5074274;28;20048;-60
2024/01/09 02:26:29;;;;;;;3.40;2.88;;;;;;;;;;5072713;28;20036;-60
2024/01/09 02:28:56;;;;;;;3.28;2.38;;;;;;;;;;5074169;28;20044;-60
2024/01/09 02:31:22;;;;;;;5.70;2.78;;;;;;;;;;5078562;28;20027;-58
2024/01/09 02:33:48;;;;;;;4.18;2.85;;;;;;;;;;5094058;28;20130;-59
2024/01/09 02:36:13;;;;;;;4.65;3.05;;;;;;;;;;5094068;28;20071;-59
2024/01/09 02:38:39;;;;;;;3.78;2.45;;;;;;;;;;5094244;28;20043;-59
2024/01/09 02:41:05;;;;;;;5.88;3.47;;;;;;;;;;5093978;28;20035;-60
2024/01/09 02:43:30;;;;;;;5.22;2.90;;;;;;;;;;5094033;28;20490;-59
2024/01/09 02:45:56;;;;;;;4.50;2.70;;;;;;;;;;5092014;28;20043;-59
2024/01/09 02:48:21;;;;;;;5.65;3.42;;;;;;;;;;5092133;28;20039;-58
2024/01/09 02:50:47;;;;;;;3.80;2.40;;;;;;;;;;5093909;28;20028;-60
2024/01/09 02:53:12;;;;;;;3.35;2.42;;;;;;;;;;5092103;28;20128;-60
2024/01/09 02:55:38;;;;;;;3.78;2.13;;;;;;;;;;5092205;28;20040;-58
2024/01/09 02:58:04;;;;;;;4.53;3.10;;;;;;;;;;5092280;28;20485;-57
2024/01/09 03:00:30;;;;;;;3.28;2.53;;;;;;;;;;5092987;28;20032;-61
2024/01/09 03:02:55;;;;;;;4.28;2.67;;;;;;;;;;5093350;28;20032;-59
2024/01/09 03:05:21;;;;;;;3.10;1.95;;;;;;;;;;5092245;28;20070;-59
2024/01/09 03:07:46;;;;;;;5.95;2.88;;;;;;;;;;5092319;28;20089;-61
2024/01/09 03:10:12;;;;;;;5.90;2.40;;;;;;;;;;5092689;28;20045;-59
2024/01/09 03:12:37;;;;;;;3.30;2.38;;;;;;;;;;5093009;28;20028;-60
2024/01/09 03:15:03;;;;;;;3.28;2.58;;;;;;;;;;5093684;28;20059;-59
2024/01/09 03:17:30;;;;;;;5.13;2.92;;;;;;;;;;5093236;28;20145;-58
2024/01/09 03:19:56;;;;;;;3.75;2.55;;;;;;;;;;5093447;28;20512;-59
2024/01/09 03:22:21;;;;;;;3.40;2.38;;;;;;;;;;5087605;28;20041;-58
2024/01/09 03:24:47;;;;;;;5.28;2.65;;;;;;;;;;5071645;28;20060;-59
2024/01/09 03:27:12;;;;;;;3.83;2.63;;;;;;;;;;5072932;28;20077;-61
2024/01/09 03:29:39;;;;;;;4.93;2.70;;;;;;;;;;5072967;28;20039;-59
2024/01/09 03:32:05;;;;;;;3.85;2.63;;;;;;;;;;5072830;28;20028;-60
2024/01/09 03:34:30;;;;;;;7.75;2.35;;;;;;;;;;5071249;28;20044;-60
2024/01/09 03:36:56;;;;;;;4.50;2.67;;;;;;;;;;5071571;28;20077;-60
2024/01/09 03:39:21;;;;;;;4.85;2.75;;;;;;;;;;5072701;28;20037;-60
2024/01/09 03:41:47;;;;;;;5.22;2.85;;;;;;;;;;5080385;28;20102;-60
2024/01/09 03:44:13;;;;;;;5.25;3.20;;;;;;;;;;5092946;28;20040;-60
2024/01/09 03:46:38;;;;;;;4.93;2.80;;;;;;;;;;5091338;28;20455;-60
2024/01/09 03:49:04;;;;;;;7.47;3.10;;;;;;;;;;5091299;28;20486;-59
2024/01/09 03:51:30;;;;;;;8.02;3.67;;;;;;;;;;5092445;28;20408;-61
2024/01/09 03:53:55;;;;;;;3.85;2.20;;;;;;;;;;5111669;27;20161;-60
2024/01/09 03:56:22;;;;;;;4.28;2.30;;;;;;;;;;5095709;27;20070;-59
2024/01/09 03:58:48;;;;;;;4.63;2.55;;;;;;;;;;5092414;28;20127;-60
2024/01/09 04:01:14;;;;;;;2.97;2.25;;;;;;;;;;5092243;28;20111;-60
2024/01/09 04:03:40;;;;;;;4.30;2.70;;;;;;;;;;5092452;28;20040;-60
2024/01/09 04:06:05;;;;;;;5.32;3.22;;;;;;;;;;5091057;28;20077;-60
2024/01/09 04:08:31;;;;;;;13.82;2.83;;;;;;;;;;5091411;28;20402;-59
2024/01/09 04:10:57;;;;;;;3.47;2.55;;;;;;;;;;5092378;28;20039;-60
2024/01/09 04:13:22;;;;;;;5.20;2.83;;;;;;;;;;5092213;28;20066;-59
2024/01/09 04:15:48;;;;;;;4.60;2.83;;;;;;;;;;5091940;28;20073;-61
2024/01/09 04:18:14;;;;;;;5.78;3.22;;;;;;;;;;5090763;28;20036;-60
2024/01/09 04:20:40;;;;;;;4.88;3.15;;;;;;;;;;5090801;28;20509;-60
2024/01/09 04:23:05;;;;;;;6.40;3.03;;;;;;;;;;5092047;28;20126;-59
2024/01/09 04:25:31;;;;;;;5.10;3.08;;;;;;;;;;5090919;28;20031;-61
2024/01/09 04:27:56;;;;;;;4.80;3.22;;;;;;;;;;5091564;28;20032;-59
2024/01/09 04:30:22;;;;;;;4.43;2.92;;;;;;;;;;5092001;28;20044;-61
2024/01/09 04:32:47;;;;;;;7.40;3.15;;;;;;;;;;5090065;28;20105;-60
2024/01/09 04:35:13;;;;;;;7.03;3.63;;;;;;;;;;5091858;28;20050;-59
2024/01/09 04:37:39;;;;;;;4.47;2.88;;;;;;;;;;5090560;28;20397;-58
2024/01/09 04:40:05;;;;;;;4.32;3.13;;;;;;;;;;5091823;28;20484;-61
2024/01/09 04:42:31;;;;;;;9.23;3.40;;;;;;;;;;5091871;28;20035;-61
2024/01/09 04:44:57;;;;;;;5.70;3.45;;;;;;;;;;5091434;28;20036;-61
2024/01/09 04:47:22;;;;;;;4.03;2.50;;;;;;;;;;5091306;28;20082;-61
2024/01/09 04:49:48;;;;;;;5.63;2.78;;;;;;;;;;5091723;28;20070;-60
2024/01/09 04:52:14;;;;;;;6.82;3.80;;;;;;;;;;5073227;28;20494;-59
2024/01/09 04:54:40;;;;;;;3.88;3.25;;;;;;;;;;5091498;28;20066;-61
2024/01/09 04:57:05;;;;;;;7.85;4.07;;;;;;;;;;5090490;28;20032;-59
2024/01/09 04:59:31;;;;;;;5.50;3.22;;;;;;;;;;5091631;28;20032;-60
2024/01/09 05:01:59;;;;;;;5.95;3.85;;;;;;;;;;5090529;28;20054;-62
2024/01/09 05:04:24;;;;;;;7.45;3.58;;;;;;;;;;5091594;28;20127;-60
2024/01/09 05:06:50;;;;;;;5.63;4.00;;;;;;;;;;5090077;28;20131;-61
2024/01/09 05:09:15;;;;;;;6.13;3.47;;;;;;;;;;5091302;28;20081;-60
2024/01/09 05:11:41;;;;;;;4.82;3.33;;;;;;;;;;5088078;28;20043;-64
2024/01/09 05:14:07;;;;;;;5.80;3.75;;;;;;;;;;5089898;28;20055;-69
2024/01/09 05:16:32;;;;;;;7.88;3.70;;;;;;;;;;5089839;28;20040;-62
2024/01/09 05:18:58;;;;;;;4.80;3.95;;;;;;;;;;5093695;28;20123;-60
2024/01/09 05:21:23;;;;;;;5.40;3.40;;;;;;;;;;5093731;28;20048;-60
2024/01/09 05:23:49;;;;;;;6.03;3.58;;;;;;;;;;5092860;28;20039;-59
2024/01/09 05:26:15;;;;;;;7.32;4.00;;;;;;;;;;5093927;28;20043;-60
2024/01/09 05:28:40;;;;;;;5.93;3.97;;;;;;;;;;5094409;28;20033;-60
2024/01/09 05:31:06;;;;;;;8.35;4.20;;;;;;;;;;5092588;28;20169;-61
2024/01/09 05:33:31;;;;;;;6.15;3.45;;;;;;;;;;5093535;28;20068;-60
2024/01/09 05:35:57;;;;;;;7.25;4.57;;;;;;;;;;5093331;28;20561;-62
2024/01/09 05:38:23;;;;;;;8.88;4.45;;;;;;;;;;5094965;28;20196;-59
2024/01/09 05:40:49;;;;;;;5.57;4.00;;;;;;;;;;5074847;28;20032;-60
2024/01/09 05:43:15;;;;;;;8.52;4.00;;;;;;;;;;5094623;28;20140;-60
2024/01/09 05:45:40;;;;;;;5.32;3.47;;;;;;;;;;5095156;28;20110;-62
2024/01/09 05:48:06;;;;;;;7.18;4.90;;;;;;;;;;5094721;28;20044;-59
2024/01/09 05:50:32;;;;;;;9.02;4.22;;;;;;;;;;5094635;28;20063;-62
2024/01/09 05:52:57;;;;;;;10.02;6.20;;;;;;;;;;5094287;28;20032;-59
2024/01/09 05:55:23;;;;;;;5.38;3.83;;;;;;;;;;5094238;28;20059;-59
2024/01/09 05:57:49;;;;;;;9.05;4.88;;;;;;;;;;5093244;28;20051;-60
2024/01/09 06:00:16;;;;;;;6.40;4.05;;;;;;;;;;5093508;28;20047;-60
2024/01/09 06:02:42;;;;;;;7.43;4.07;;;;;;;;;;5093736;28;20077;-59
2024/01/09 06:05:07;;;;;;;8.90;3.60;;;;;;;;;;5093310;28;20448;-60
2024/01/09 06:07:33;;;;;;;6.20;3.85;;;;;;;;;;5083791;28;20059;-61
2024/01/09 06:09:59;;;;;;;5.35;3.30;;;;;;;;;;5074489;28;20043;-60
2024/01/09 06:12:24;;;;;;;7.00;3.38;;;;;;;;;;5087884;28;20040;-61
2024/01/09 06:14:50;;;;;;;7.65;3.65;;;;;;;;;;5094461;28;20051;-59
2024/01/09 06:17:16;;;;;;;5.75;4.03;;;;;;;;;;5093727;28;20386;-62
2024/01/09 06:19:41;;;;;;;5.03;3.35;;;;;;;;;;5093684;28;20039;-60
2024/01/09 06:22:07;;;;;;;6.80;4.15;;;;;;;;;;5094072;28;20032;-61
2024/01/09 06:24:33;;;;;;;10.65;4.95;;;;;;;;;;5092828;28;20044;-59
2024/01/09 06:26:58;;;;;;;4.95;3.50;;;;;;;;;;5093925;28;20477;-59
2024/01/09 06:29:24;;;;;;;5.68;2.97;;;;;;;;;;5093483;28;20040;-60
2024/01/09 06:31:50;;;;;;;9.13;4.03;;;;;;;;;;5092337;28;20063;-62
2024/01/09 06:34:15;;;;;;;6.65;3.63;;;;;;;;;;5075709;28;20132;-59
2024/01/09 06:36:45;;;;;;;6.25;3.10;;;;;;;;;;5092761;28;20036;-61
2024/01/09 06:39:11;;;;;;;3.92;2.15;;;;;;;;;;5093589;28;20134;-60
2024/01/09 06:41:37;;;;;;;5.53;2.53;;;;;;;;;;5091814;28;20107;-61
2024/01/09 06:44:03;;;;;;;3.08;2.17;;;;;;;;;;5092157;28;20272;-59
2024/01/09 06:46:29;;;;;;;1.70;1.58;;;;;;;;;;5093391;28;20032;-61
2024/01/09 06:48:54;;;;;;;3.42;2.50;;;;;;;;;;5093617;28;20040;-62
2024/01/09 06:51:20;;;;;;;2.55;2.30;;;;;;;;;;5093498;28;20031;-61
2024/01/09 06:53:46;;;;;;;5.13;2.40;;;;;;;;;;5092990;28;20055;-60
2024/01/09 06:56:11;;;;;;;2.90;2.45;;;;;;;;;;5092515;28;20047;-61
2024/01/09 06:58:37;;;;;;;3.03;2.38;;;;;;;;;;5092251;28;20101;-58
2024/01/09 07:01:03;;;;;;;2.60;2.15;;;;;;;;;;5091591;28;20060;-60
2024/01/09 07:03:30;;;;;;;2.95;2.08;;;;;;;;;;5092416;28;20032;-60
2024/01/09 07:05:55;;;;;;;4.35;2.80;;;;;;;;;;5093129;28;20040;-61
2024/01/09 07:08:22;;;;;;;3.55;2.50;;;;;;;;;;5092602;28;20036;-58
2024/01/09 07:10:47;;;;;;;4.00;2.58;;;;;;;;;;5092406;28;20032;-60
2024/01/09 07:13:13;;;;;;;3.03;2.00;;;;;;;;;;5065789;28;20422;-59
2024/01/09 07:15:38;;;;;;;4.28;2.88;;;;;;;;;;5073051;28;20049;-61
2024/01/09 07:18:04;;;;;;;5.32;3.28;;;;;;;;;;5090826;28;20489;-59
2024/01/09 07:20:30;;;;;;;4.05;3.17;;;;;;;;;;5092965;28;20031;-59
2024/01/09 07:22:55;;;;;;;6.03;3.85;;;;;;;;;;5092273;28;20077;-60
2024/01/09 07:25:21;;;;;;;3.60;3.00;;;;;;;;;;5092672;28;20621;-61
2024/01/09 07:27:46;;;;;;;2.42;2.00;;;;;;;;;;5092665;28;20039;-58
2024/01/09 07:30:12;;;;;;;4.68;2.60;;;;;;;;;;5092801;28;20024;-56
2024/01/09 07:32:38;;;;;;;5.78;2.30;;;;;;;;;;5092520;28;20032;-59
2024/01/09 07:35:04;;;;;;;3.38;2.10;;;;;;;;;;5092449;28;20048;-59
2024/01/09 07:37:30;;;;;;;4.10;2.55;;;;;;;;;;5091068;28;20040;-60
2024/01/09 07:39:55;;;;;;;2.20;1.85;;;;;;;;;;5092678;28;20040;-56
2024/01/09 07:42:21;;;;;;;2.30;1.58;;;;;;;;;;5090944;28;20036;-62
2024/01/09 07:44:47;;;;;;;2.05;1.80;;;;;;;;;;5090995;28;20043;-59
2024/01/09 07:47:13;;;;;;;2.60;2.00;;;;;;;;;;5092220;28;20440;-60
2024/01/09 07:49:39;;;;;;;1.90;1.75;;;;;;;;;;5090478;28;20032;-59
2024/01/09 07:52:05;;;;;;;2.03;1.80;;;;;;;;;;5091474;28;20064;-58
2024/01/09 07:54:30;;;;;;;1.83;1.73;;;;;;;;;;5091876;28;20052;-60
2024/01/09 07:56:56;;;;;;;2.03;1.75;;;;;;;;;;5091971;28;20031;-60
2024/01/09 07:59:22;;;;;;;3.58;1.80;;;;;;;;;;5092272;28;20036;-60
2024/01/09 08:01:54;;;;;;;3.38;2.15;;;;;;;;;;5090709;28;20032;-60
2024/01/09 08:04:23;;;;;;;2.53;1.98;;;;;;;;;;5091057;28;20122;-59
2024/01/09 08:06:52;;;;;;;5.40;3.15;;;;;;;;;;5089920;28;20028;-59
2024/01/09 08:09:18;;;;;;;6.50;3.75;;;;;;;;;;5092355;28;20048;-60
2024/01/09 08:11:44;;;;;;;9.27;5.43;;;;;;;;;;5091474;28;20508;-60
2024/01/09 08:14:11;;;;;;;5.18;3.03;;;;;;;;;;5078361;28;20390;-60
2024/01/09 08:16:36;;;;;;;4.57;2.97;;;;;;;;;;5091609;28;20402;-59
2024/01/09 08:19:04;;;;;;;10.10;4.88;;;;;;;;;;5091960;28;20047;-59
2024/01/09 08:21:31;;;;;;;5.78;4.00;;;;;;;;;;5091090;28;20481;-59
2024/01/09 08:23:56;;;;;;;5.72;3.95;;;;;;;;;;5091680;28;20052;-61
2024/01/09 08:26:22;;;;;;;6.72;3.33;;;;;;;;;;5090960;28;20028;-60
2024/01/09 08:28:48;;;;;;;8.13;4.10;;;;;;;;;;5089567;28;20115;-59
2024/01/09 08:31:13;;;;;;;5.32;2.83;;;;;;;;;;5089223;28;20084;-59
2024/01/09 08:33:39;;;;;;;3.85;2.65;;;;;;;;;;5091099;28;20032;-60
2024/01/09 08:36:05;;;;;;;3.65;2.70;;;;;;;;;;5091296;28;20067;-60
2024/01/09 08:38:30;;;;;;;5.13;2.97;;;;;;;;;;5090886;28;20489;-60
2024/01/09 08:40:56;;;;;;;3.42;2.80;;;;;;;;;;5090965;28;20028;-60
2024/01/09 08:43:22;;;;;;;4.57;2.63;;;;;;;;;;5091397;28;20039;-60
2024/01/09 08:45:49;;;;;;;3.20;2.22;;;;;;;;;;5091470;28;20447;-62
2024/01/09 08:48:15;;;;;;;3.47;2.20;;;;;;;;;;5091411;28;20115;-59
2024/01/09 08:50:40;;;;;;;4.07;2.60;;;;;;;;;;5090997;28;20557;-68
2024/01/09 08:53:06;;;;;;;3.53;2.22;;;;;;;;;;5090630;28;20524;-63
2024/01/09 08:55:31;;;;;;;4.50;2.92;;;;;;;;;;5091566;28;20056;-62
2024/01/09 08:57:57;;;;;;;6.47;3.70;;;;;;;;;;5089076;28;20059;-61
2024/01/09 09:00:23;;;;;;;8.00;4.15;;;;;;;;;;5091123;28;20119;-62
2024/01/09 09:02:49;;;;;;;8.30;5.72;;;;;;;;;;5090682;28;20032;-60
2024/01/09 09:05:14;;;;;;;10.10;6.32;;;;;;;;;;5090636;28;20035;-61
2024/01/09 09:07:40;;;;;;;7.55;4.50;;;;;;;;;;5091069;28;20441;-60
2024/01/09 09:10:06;;;;;;;12.15;5.35;;;;;;;;;;5091286;28;20397;-61
2024/01/09 09:12:32;;;;;;;11.27;7.72;;;;;;;;;;5087270;28;20166;-62
2024/01/09 09:14:58;;;;;;;8.45;4.00;;;;;;;;;;5069268;28;20056;-61
2024/01/09 09:17:24;;;;;;;10.35;4.90;;;;;;;;;;5084729;28;20092;-62
2024/01/09 09:19:49;;;;;;;7.80;4.22;;;;;;;;;;5091075;28;20104;-60
2024/01/09 09:22:15;;;;;;;5.68;4.28;;;;;;;;;;5090667;28;20032;-63
2024/01/09 09:24:42;;;;;;;8.43;4.43;;;;;;;;;;5091015;28;20032;-60
2024/01/09 09:27:07;;;;;;;7.30;3.20;;;;;;;;;;5090874;28;20383;-61
2024/01/09 09:29:33;;;;;;;6.88;3.50;;;;;;;;;;5089405;28;20033;-60
2024/01/09 09:31:59;;;;;;;7.60;3.92;;;;;;;;;;5090399;28;20032;-62
2024/01/09 09:34:24;;;;;;;7.95;4.65;;;;;;;;;;5090783;28;20043;-60
2024/01/09 09:36:50;;;;;;;7.47;5.05;;;;;;;;;;5088934;28;20055;-62
2024/01/09 09:39:16;;;;;;;10.43;4.97;;;;;;;;;;5072505;28;20036;-61
2024/01/09 09:41:43;;;;;;;7.45;4.60;;;;;;;;;;5090466;28;20051;-61
2024/01/09 09:44:10;;;;;;;7.82;4.38;;;;;;;;;;5090764;28;20051;-62
2024/01/09 09:46:39;;;;;;;6.72;4.20;;;;;;;;;;5090720;28;20032;-61
2024/01/09 09:49:05;;;;;;;9.10;5.38;;;;;;;;;;5090735;28;20115;-59
2024/01/09 09:51:31;;;;;;;6.50;4.40;;;;;;;;;;5090321;28;20073;-61
2024/01/09 09:53:57;;;;;;;6.10;3.70;;;;;;;;;;5089372;28;20036;-60
2024/01/09 09:56:24;;;;;;;8.70;4.22;;;;;;;;;;5090455;28;20080;-61
2024/01/09 09:58:49;;;;;;;5.20;3.85;;;;;;;;;;5089674;28;20044;-61
2024/01/09 10:01:15;;;;;;;8.50;4.05;;;;;;;;;;5090728;28;20032;-62
2024/01/09 10:03:54;;;;;;;6.15;4.00;;;;;;;;;;5090985;28;20051;-62
2024/01/09 10:06:21;;;;;;;8.32;4.07;;;;;;;;;;5093778;28;20028;-61
2024/01/09 10:08:48;;;;;;;6.88;4.00;;;;;;;;;;5094252;28;20039;-59
2024/01/09 10:11:13;;;;;;;7.85;4.00;;;;;;;;;;5093056;28;20031;-59
2024/01/09 10:13:39;;;;;;;12.35;4.00;;;;;;;;;;5082725;28;20048;-59
2024/01/09 10:16:20;;;;;;;5.03;3.30;;;;;;;;;;5094453;28;20047;-60
2024/01/09 10:18:56;;;;;;;8.63;3.78;;;;;;;;;;5057009;28;20123;-62
2024/01/09 10:21:22;;;;;;;5.10;3.30;;;;;;;;;;5091850;28;20055;-58
2024/01/09 10:23:48;;;;;;;5.40;3.65;;;;;;;;;;5073708;28;20528;-60
2024/01/09 10:26:14;;;;;;;5.40;3.78;;;;;;;;;;5091843;28;20032;-63
2024/01/09 10:28:41;;;;;;;5.40;3.63;;;;;;;;;;5093564;28;20042;-61
2024/01/09 10:31:07;;;;;;;5.05;3.38;;;;;;;;;;5092143;28;20241;-60
2024/01/09 10:33:37;;;;;;;5.68;3.28;;;;;;;;;;5093361;28;20036;-61
2024/01/09 10:36:03;;;;;;;6.70;3.33;;;;;;;;;;5091725;28;20044;-61
2024/01/09 10:38:29;;;;;;;4.70;3.47;;;;;;;;;;5092987;28;20046;-57
2024/01/09 10:40:57;;;;;;;4.97;3.33;;;;;;;;;;5092420;28;20035;-60
2024/01/09 10:43:26;;;;;;;7.25;3.97;;;;;;;;;;5092977;28;20031;-59
2024/01/09 10:45:55;;;;;;;5.57;3.67;;;;;;;;;;5093265;28;20200;-61
2024/01/09 10:48:25;;;;;;;4.45;3.22;;;;;;;;;;5075047;28;20028;-60
2024/01/09 10:50:51;;;;;;;6.70;4.07;;;;;;;;;;5092173;28;20383;-61
2024/01/09 10:53:20;;;;;;;6.50;3.63;;;;;;;;;;5041850;28;20036;-61
2024/01/09 10:55:49;;;;;;;6.53;3.90;;;;;;;;;;5072457;28;20056;-61
2024/01/09 10:58:14;;;;;;;5.35;3.22;;;;;;;;;;5076679;28;20547;-59
2024/01/09 11:00:40;;;;;;;5.57;3.70;;;;;;;;;;5089790;28;20032;-62
2024/01/09 11:03:06;;;;;;;7.95;3.45;;;;;;;;;;5092881;28;20064;-61
2024/01/09 11:05:31;;;;;;;5.70;3.53;;;;;;;;;;5092538;28;20525;-63
2024/01/09 11:07:58;;;;;;;6.38;3.50;;;;;;;;;;5091050;28;20036;-59
2024/01/09 11:10:24;;;;;;;4.53;2.83;;;;;;;;;;5093352;28;20078;-62
2024/01/09 11:12:52;;;;;;;5.80;3.30;;;;;;;;;;5087928;28;20028;-60
2024/01/09 11:15:17;;;;;;;4.60;3.35;;;;;;;;;;5092704;28;20036;-61
2024/01/09 11:17:46;;;;;;;4.65;2.95;;;;;;;;;;5093216;28;20031;-60
2024/01/09 11:20:14;;;;;;;5.78;3.00;;;;;;;;;;5093014;28;20024;-62
2024/01/09 11:22:39;;;;;;;5.40;3.28;;;;;;;;;;5092631;28;20439;-60
2024/01/09 11:25:18;;;;;;;7.53;3.33;;;;;;;;;;5092606;28;20036;-61
2024/01/09 11:27:47;;;;;;;6.18;3.53;;;;;;;;;;5092321;28;20092;-60
2024/01/09 11:30:15;;;;;;;4.80;2.85;;;;;;;;;;5092610;28;20135;-61
2024/01/09 11:32:41;;;;;;;5.40;3.05;;;;;;;;;;5091157;28;20185;-60
2024/01/09 11:35:08;;;;;;;4.72;3.05;;;;;;;;;;5092298;28;20146;-60
2024/01/09 11:37:35;;;;;;;7.30;3.58;;;;;;;;;;5094635;28;20122;-59
2024/01/09 11:40:01;;;;;;;5.50;3.47;;;;;;;;;;5087082;28;20035;-59
2024/01/09 11:42:27;;;;;;;6.47;2.92;;;;;;;;;;5092451;28;20073;-61
2024/01/09 11:44:53;;;;;;;5.90;3.13;;;;;;;;;;5092460;28;20126;-61
2024/01/09 11:47:18;;;;;;;5.82;3.50;;;;;;;;;;5091038;28;20035;-60
2024/01/09 11:49:44;;;;;;;6.47;3.28;;;;;;;;;;5091836;28;20051;-59
2024/01/09 11:52:10;;;;;;;5.47;3.33;;;;;;;;;;5092214;28;20039;-59
2024/01/09 11:54:36;;;;;;;5.43;3.50;;;;;;;;;;5092049;28;20052;-60
2024/01/09 11:57:02;;;;;;;5.07;2.70;;;;;;;;;;5092208;28;20036;-60
2024/01/09 11:59:30;;;;;;;7.18;3.53;;;;;;;;;;5092234;28;20039;-60
2024/01/09 12:01:55;;;;;;;4.05;3.15;;;;;;;;;;5092355;28;20028;-59
2024/01/09 12:04:22;;;;;;;6.00;3.63;;;;;;;;;;5091907;28;20452;-59
2024/01/09 12:06:47;;;;;;;5.22;3.20;;;;;;;;;;5090898;28;20119;-60
2024/01/09 12:09:13;;;;;;;6.45;3.55;;;;;;;;;;5091715;28;20333;-58
2024/01/09 12:11:38;;;;;;;7.25;3.40;;;;;;;;;;5091733;28;20027;-60
2024/01/09 12:14:05;;;;;;;4.75;3.17;;;;;;;;;;5080407;28;20042;-61
2024/01/09 12:16:31;;;;;;;7.95;3.53;;;;;;;;;;5089868;28;20075;-59
2024/01/09 12:18:57;;;;;;;4.22;3.33;;;;;;;;;;5090093;28;20485;-60
2024/01/09 12:21:24;;;;;;;5.05;3.38;;;;;;;;;;5091396;28;20036;-61
2024/01/09 12:23:50;;;;;;;7.03;3.83;;;;;;;;;;5091156;28;20374;-60
2024/01/09 12:26:18;;;;;;;5.90;3.75;;;;;;;;;;5091314;28;20511;-60
2024/01/09 12:28:44;;;;;;;6.22;4.22;;;;;;;;;;5073082;28;20040;-62
2024/01/09 12:31:10;;;;;;;7.55;3.80;;;;;;;;;;5091759;28;20036;-59
2024/01/09 12:33:36;;;;;;;5.70;3.78;;;;;;;;;;5091300;28;20044;-61
2024/01/09 12:36:03;;;;;;;5.28;3.80;;;;;;;;;;5091407;28;20425;-59
2024/01/09 12:38:29;;;;;;;5.60;3.40;;;;;;;;;;5091611;28;20036;-61
2024/01/09 12:41:02;;;;;;;7.07;4.20;;;;;;;;;;5091470;28;20562;-62
2024/01/09 12:43:28;;;;;;;5.55;3.53;;;;;;;;;;5091773;28;20063;-60
2024/01/09 12:45:56;;;;;;;5.90;4.00;;;;;;;;;;5091198;28;20052;-61
2024/01/09 12:48:25;;;;;;;5.60;3.42;;;;;;;;;;5091035;28;20108;-61
2024/01/09 12:50:57;;;;;;;8.85;4.15;;;;;;;;;;5089414;28;20042;-61
2024/01/09 12:53:23;;;;;;;8.20;4.20;;;;;;;;;;5091254;28;20044;-60
2024/01/09 12:56:09;;;;;;;6.05;3.70;;;;;;;;;;5090563;28;20059;-61
2024/01/09 12:58:40;;;;;;;6.30;3.33;;;;;;;;;;5090532;28;20079;-60
2024/01/09 13:01:06;;;;;;;5.05;3.30;;;;;;;;;;5091410;28;20548;-60
2024/01/09 13:03:32;;;;;;;6.35;4.10;;;;;;;;;;5090972;28;20048;-60
2024/01/09 13:06:00;;;;;;;7.20;4.20;;;;;;;;;;5091470;28;20039;-61
2024/01/09 13:08:29;;;;;;;6.05;3.80;;;;;;;;;;5090160;28;20513;-61
2024/01/09 13:10:54;;;;;;;6.90;3.55;;;;;;;;;;5091544;28;20028;-62
2024/01/09 13:13:20;;;;;;;6.03;3.83;;;;;;;;;;5090832;28;20288;-60
2024/01/09 13:15:45;;;;;;;6.60;3.80;;;;;;;;;;5091219;28;20047;-61
2024/01/09 13:18:11;;;;;;;6.15;4.25;;;;;;;;;;5091081;28;20032;-61
2024/01/09 13:20:38;;;;;;;5.25;3.90;;;;;;;;;;5089719;28;20028;-61
2024/01/09 13:23:04;;;;;;;6.10;3.58;;;;;;;;;;5090679;28;20485;-60
2024/01/09 13:25:30;;;;;;;6.63;3.80;;;;;;;;;;5091276;28;20107;-61
2024/01/09 13:27:55;;;;;;;6.50;4.18;;;;;;;;;;5091046;28;20036;-60
2024/01/09 13:30:21;;;;;;;8.70;4.00;;;;;;;;;;5090631;28;20028;-61
2024/01/09 13:32:47;;;;;;;5.63;3.72;;;;;;;;;;5090427;28;20043;-61
2024/01/09 13:35:12;;;;;;;5.95;3.72;;;;;;;;;;5089493;28;20048;-61
2024/01/09 13:37:39;;;;;;;7.72;4.43;;;;;;;;;;5089706;28;20032;-60
2024/01/09 13:40:08;;;;;;;6.25;3.75;;;;;;;;;;5093195;28;20044;-60
2024/01/09 13:42:35;;;;;;;8.38;4.28;;;;;;;;;;5095088;28;20032;-60
2024/01/09 13:45:00;;;;;;;7.45;4.32;;;;;;;;;;5092629;28;20481;-60
2024/01/09 13:47:27;;;;;;;8.07;4.60;;;;;;;;;;5094656;28;20055;-63
2024/01/09 13:49:52;;;;;;;7.88;4.57;;;;;;;;;;5094791;28;20127;-61
2024/01/09 13:52:18;;;;;;;9.05;4.63;;;;;;;;;;5094566;28;20119;-63
2024/01/09 13:54:44;;;;;;;8.75;4.57;;;;;;;;;;5092521;28;20063;-61
2024/01/09 13:57:12;;;;;;;8.07;4.40;;;;;;;;;;5094641;28;20036;-62
2024/01/09 13:59:39;;;;;;;7.50;4.70;;;;;;;;;;5094627;28;20043;-61
2024/01/09 14:02:05;;;;;;;7.57;4.03;;;;;;;;;;5093496;28;20036;-62
2024/01/09 14:04:31;;;;;;;12.70;4.53;;;;;;;;;;5094343;28;20477;-60
2024/01/09 14:06:57;;;;;;;9.82;4.78;;;;;;;;;;5094550;28;20077;-63
2024/01/09 14:09:22;;;;;;;6.65;4.30;;;;;;;;;;5092753;28;20036;-61
2024/01/09 14:11:48;;;;;;;9.02;4.32;;;;;;;;;;5094300;28;20043;-62
2024/01/09 14:14:13;;;;;;;7.55;4.65;;;;;;;;;;5082836;28;20036;-61
2024/01/09 14:16:39;;;;;;;7.22;4.80;;;;;;;;;;5094119;28;20405;-63
2024/01/09 14:19:05;;;;;;;11.43;5.22;;;;;;;;;;5092564;28;20040;-61
2024/01/09 14:21:33;;;;;;;10.18;5.30;;;;;;;;;;5094348;28;20124;-63
2024/01/09 14:23:59;;;;;;;8.75;5.35;;;;;;;;;;5094116;28;20117;-61
2024/01/09 14:26:25;;;;;;;7.57;4.35;;;;;;;;;;5093181;28;20514;-63
2024/01/09 14:28:51;;;;;;;9.32;4.88;;;;;;;;;;5093830;28;20047;-61
2024/01/09 14:31:17;;;;;;;11.40;5.78;;;;;;;;;;5093797;28;20036;-62
2024/01/09 14:33:42;;;;;;;10.73;5.25;;;;;;;;;;5092158;28;20032;-62
2024/01/09 14:36:08;;;;;;;9.98;5.50;;;;;;;;;;5091692;28;20040;-62